TAF KART
KART 280551Z 2806/2906 08004KT P6SM SCT040 BKN250 FM281000 VRB04KT P6SM BKN080 FM281500 VRB04KT P6SM BKN040 FM282000 06006KT P6SM VCSH OVC015 FM290000 05008KT 6SM -SN OVC015=
METAR KART
WC KART
WS KART
WV KART